Time;durP1;ratioP1;P1;durP2;ratioP2;P2;SDS_P1;SDS_P2;PMS_P1;PMS_P2;Temp;Humidity;BMP_temperature;BMP_pressure;BME280_temperature;BME280_humidity;BME280_pressure;Samples;Min_cycle;Max_cycle;Signal;HPM_P1;HPM_P2
2021/04/24 00:01:47;;;;;;;22.40;6.68;;;7.60;48.60;;;;;;4998802;28;20097;-74
2021/04/24 00:04:13;;;;;;;12.02;5.32;;;7.40;48.70;;;;;;4997614;28;20022;-75
2021/04/24 00:06:38;;;;;;;14.32;6.28;;;7.40;48.90;;;;;;4997473;28;20514;-75
2021/04/24 00:09:05;;;;;;;15.15;5.55;;;7.40;49.00;;;;;;4997634;28;20467;-74
2021/04/24 00:11:30;;;;;;;12.32;5.05;;;7.30;48.60;;;;;;4997479;28;20092;-75
2021/04/24 00:13:56;;;;;;;10.48;4.88;;;7.20;48.70;;;;;;4998038;28;20487;-74
2021/04/24 00:16:22;;;;;;;11.95;5.63;;;7.20;48.90;;;;;;4997550;28;20026;-74
2021/04/24 00:18:47;;;;;;;10.43;5.00;;;7.10;48.90;;;;;;4997028;28;20030;-74
2021/04/24 00:21:13;;;;;;;10.07;5.25;;;7.10;49.00;;;;;;4996937;28;20030;-74
2021/04/24 00:23:39;;;;;;;10.15;4.75;;;7.10;49.00;;;;;;4996984;28;20038;-76
2021/04/24 00:26:04;;;;;;;14.57;5.38;;;7.10;49.00;;;;;;4996926;28;20023;-75
2021/04/24 00:28:30;;;;;;;7.75;4.50;;;7.10;49.00;;;;;;4997002;28;20108;-75
2021/04/24 00:30:56;;;;;;;9.88;4.45;;;7.20;49.00;;;;;;4996696;28;20476;-74
2021/04/24 00:33:22;;;;;;;13.07;4.75;;;7.30;49.00;;;;;;4996634;28;20499;-75
2021/04/24 00:35:47;;;;;;;13.15;5.50;;;7.30;49.00;;;;;;4996540;28;20118;-74
2021/04/24 00:38:13;;;;;;;9.48;4.35;;;7.30;48.90;;;;;;4996635;28;20025;-74
2021/04/24 00:40:39;;;;;;;12.60;4.82;;;7.30;48.90;;;;;;4996551;28;20494;-74
2021/04/24 00:43:05;;;;;;;12.90;5.22;;;7.30;48.90;;;;;;4996447;28;20030;-74
2021/04/24 00:45:31;;;;;;;13.30;5.18;;;7.30;48.90;;;;;;4996512;28;20026;-76
2021/04/24 00:47:59;;;;;;;11.38;4.80;;;7.30;48.90;;;;;;4996485;28;20058;-74
2021/04/24 00:50:28;;;;;;;11.15;5.03;;;7.30;49.00;;;;;;4996635;28;20030;-75
2021/04/24 00:52:53;;;;;;;12.98;4.95;;;7.30;49.90;;;;;;4996542;28;20034;-74
2021/04/24 00:55:19;;;;;;;13.77;4.88;;;7.30;49.00;;;;;;4996221;28;20047;-75
2021/04/24 00:57:46;;;;;;;9.73;4.78;;;7.30;49.00;;;;;;4996284;28;20031;-73
2021/04/24 01:00:14;;;;;;;9.80;4.65;;;7.30;49.20;;;;;;4996239;28;20099;-74
2021/04/24 01:02:40;;;;;;;10.10;4.55;;;7.30;49.30;;;;;;4996146;28;20039;-74
2021/04/24 01:05:14;;;;;;;12.15;4.47;;;7.20;49.20;;;;;;4978798;28;20030;-74
2021/04/24 01:07:41;;;;;;;10.20;5.05;;;7.20;49.20;;;;;;4978596;28;20027;-74
2021/04/24 01:10:08;;;;;;;11.18;4.93;;;7.30;49.20;;;;;;4995570;28;20038;-74
2021/04/24 01:12:34;;;;;;;15.38;5.20;;;7.30;49.20;;;;;;4995948;28;20027;-74
2021/04/24 01:14:59;;;;;;;11.75;4.45;;;7.30;49.20;;;;;;4995915;28;20081;-75
2021/04/24 01:17:25;;;;;;;8.40;4.97;;;7.30;49.20;;;;;;4996059;28;20026;-74
2021/04/24 01:19:50;;;;;;;12.40;5.15;;;7.40;49.20;;;;;;4995806;28;20427;-75
2021/04/24 01:22:16;;;;;;;14.48;5.38;;;7.30;49.10;;;;;;4995851;28;20053;-73
2021/04/24 01:24:42;;;;;;;12.27;4.90;;;7.30;49.00;;;;;;4978354;28;20029;-73
2021/04/24 01:27:08;;;;;;;13.23;5.30;;;7.30;48.90;;;;;;4995682;28;20387;-73
2021/04/24 01:29:36;;;;;;;11.48;4.90;;;7.20;48.80;;;;;;4995774;28;20098;-74
2021/04/24 01:32:01;;;;;;;15.48;5.80;;;7.20;49.00;;;;;;4995569;28;20026;-73
2021/04/24 01:34:28;;;;;;;14.05;5.75;;;7.10;49.00;;;;;;4995399;28;20563;-73
2021/04/24 01:36:58;;;;;;;15.85;5.47;;;7.10;49.30;;;;;;4995433;28;20375;-73
2021/04/24 01:39:24;;;;;;;19.10;6.13;;;7.10;49.60;;;;;;4995463;28;20023;-72
2021/04/24 01:41:50;;;;;;;12.77;5.40;;;7.10;49.70;;;;;;4977723;28;20045;-72
2021/04/24 01:44:16;;;;;;;9.52;5.30;;;7.00;49.60;;;;;;4995454;28;20022;-73
2021/04/24 01:46:42;;;;;;;13.23;5.45;;;7.00;49.60;;;;;;4995523;28;20061;-73
2021/04/24 01:49:08;;;;;;;13.63;5.85;;;6.90;49.70;;;;;;4995222;28;20077;-74
2021/04/24 01:51:33;;;;;;;10.98;5.43;;;6.90;49.80;;;;;;4995324;28;20105;-73
2021/04/24 01:53:59;;;;;;;9.95;5.10;;;6.90;49.80;;;;;;4995244;28;20480;-73
2021/04/24 01:56:24;;;;;;;11.23;4.60;;;6.80;49.80;;;;;;4995141;28;20046;-74
2021/04/24 01:58:52;;;;;;;14.40;5.75;;;6.70;49.70;;;;;;4995115;28;20034;-73
2021/04/24 02:01:18;;;;;;;10.25;5.20;;;6.50;50.00;;;;;;4995146;28;20084;-73
2021/04/24 02:03:48;;;;;;;11.45;5.15;;;6.30;50.40;;;;;;4995259;28;20054;-73
2021/04/24 02:06:14;;;;;;;10.15;5.10;;;6.30;51.00;;;;;;4995103;28;20014;-72
2021/04/24 02:08:44;;;;;;;11.98;5.18;;;6.20;51.30;;;;;;4995008;28;20507;-73
2021/04/24 02:11:11;;;;;;;11.70;5.28;;;5.90;52.00;;;;;;4994948;28;20532;-73
2021/04/24 02:13:43;;;;;;;11.45;5.35;;;5.90;52.60;;;;;;4994947;28;20026;-74
2021/04/24 02:16:11;;;;;;;11.18;5.65;;;5.90;52.80;;;;;;4994780;28;20022;-74
2021/04/24 02:18:37;;;;;;;13.18;5.57;;;6.00;52.80;;;;;;4994793;28;20057;-75
2021/04/24 02:21:04;;;;;;;13.27;6.18;;;6.00;53.00;;;;;;4994272;28;20026;-74
2021/04/24 02:23:38;;;;;;;10.55;5.25;;;6.10;52.80;;;;;;4994222;28;20031;-77
2021/04/24 02:26:06;;;;;;;15.73;6.22;;;6.00;52.60;;;;;;4994682;28;20464;-77
2021/04/24 02:28:31;;;;;;;12.77;5.20;;;6.00;52.60;;;;;;4994615;28;20022;-77
2021/04/24 02:30:57;;;;;;;11.85;6.20;;;6.00;52.70;;;;;;4994638;28;20153;-77
2021/04/24 02:33:23;;;;;;;10.73;5.85;;;6.00;52.60;;;;;;4994484;28;20026;-76
2021/04/24 02:35:54;;;;;;;10.15;5.03;;;5.90;52.70;;;;;;4994902;28;20080;-77
2021/04/24 02:38:30;;;;;;;12.93;6.20;;;5.90;52.80;;;;;;4994477;28;20034;-77
2021/04/24 02:40:59;;;;;;;11.77;5.30;;;5.90;53.00;;;;;;4994336;28;20026;-77
2021/04/24 02:43:25;;;;;;;11.20;5.50;;;5.90;53.10;;;;;;4994264;28;20031;-77
2021/04/24 02:45:51;;;;;;;9.73;4.95;;;6.00;53.00;;;;;;4994036;28;20497;-76
2021/04/24 02:48:18;;;;;;;10.05;5.25;;;6.00;52.80;;;;;;4994217;28;20035;-76
2021/04/24 02:50:44;;;;;;;12.90;6.45;;;5.90;52.80;;;;;;4994182;28;20025;-76
2021/04/24 02:53:10;;;;;;;9.40;5.18;;;5.90;52.80;;;;;;4994261;28;20022;-76
2021/04/24 02:55:35;;;;;;;11.10;5.13;;;5.90;52.90;;;;;;4993919;28;20042;-77
2021/04/24 02:58:01;;;;;;;11.63;5.60;;;5.90;53.00;;;;;;4994146;28;20505;-77
2021/04/24 03:00:27;;;;;;;11.85;5.30;;;5.90;53.00;;;;;;4994028;28;20026;-76
2021/04/24 03:03:05;;;;;;;10.13;5.35;;;6.00;53.00;;;;;;4976225;28;20030;-76
2021/04/24 03:05:31;;;;;;;14.43;6.75;;;5.90;53.10;;;;;;4993965;28;20037;-76
2021/04/24 03:07:57;;;;;;;14.63;6.10;;;5.80;53.20;;;;;;4993798;28;20019;-75
2021/04/24 03:10:24;;;;;;;13.70;6.15;;;5.80;53.30;;;;;;4993874;28;20394;-76
2021/04/24 03:12:50;;;;;;;9.65;5.47;;;5.80;53.30;;;;;;4993675;28;20032;-76
2021/04/24 03:15:16;;;;;;;11.70;5.45;;;5.80;53.30;;;;;;4993764;28;20073;-76
2021/04/24 03:17:42;;;;;;;11.63;5.88;;;5.80;53.40;;;;;;4994004;28;20023;-76
2021/04/24 03:20:09;;;;;;;13.38;6.07;;;5.80;53.50;;;;;;4993643;28;20380;-76
2021/04/24 03:22:35;;;;;;;11.05;5.00;;;5.90;53.60;;;;;;4993681;28;20529;-76
2021/04/24 03:25:01;;;;;;;16.15;5.75;;;5.90;53.50;;;;;;4993404;28;20027;-76
2021/04/24 03:27:26;;;;;;;14.25;6.13;;;5.90;53.50;;;;;;4993657;28;20502;-76
2021/04/24 03:29:52;;;;;;;13.40;5.85;;;5.80;53.40;;;;;;4993231;28;20407;-77
2021/04/24 03:32:18;;;;;;;14.70;5.65;;;5.70;53.50;;;;;;4993395;28;20038;-77
2021/04/24 03:34:43;;;;;;;11.25;5.93;;;5.70;53.80;;;;;;4993476;28;20022;-77
2021/04/24 03:37:09;;;;;;;15.23;6.05;;;5.70;54.00;;;;;;4993563;28;20030;-78
2021/04/24 03:39:34;;;;;;;14.20;6.10;;;5.70;54.00;;;;;;4993780;28;20034;-77
2021/04/24 03:42:00;;;;;;;12.07;6.05;;;5.70;54.10;;;;;;4993310;28;20038;-76
2021/04/24 03:44:26;;;;;;;11.10;5.82;;;5.70;54.00;;;;;;4993416;28;20380;-76
2021/04/24 03:46:51;;;;;;;8.52;5.05;;;5.70;54.10;;;;;;4993126;28;20030;-77
2021/04/24 03:49:17;;;;;;;8.70;5.45;;;5.70;54.30;;;;;;4993475;28;20042;-76
2021/04/24 03:51:43;;;;;;;14.20;5.57;;;5.70;54.20;;;;;;4993269;28;20058;-76
2021/04/24 03:54:09;;;;;;;10.60;5.82;;;5.60;54.30;;;;;;4993411;28;20022;-77
2021/04/24 03:56:35;;;;;;;15.70;6.05;;;5.60;54.30;;;;;;4993065;28;20573;-76
2021/04/24 03:59:00;;;;;;;8.75;4.68;;;5.60;54.40;;;;;;4993244;28;20062;-76
2021/04/24 04:01:26;;;;;;;10.93;5.38;;;5.60;54.50;;;;;;4993276;28;20411;-77
2021/04/24 04:03:52;;;;;;;10.57;5.05;;;5.60;54.50;;;;;;4993324;28;20027;-77
2021/04/24 04:06:18;;;;;;;10.70;5.60;;;5.60;54.60;;;;;;4993404;28;20468;-77
2021/04/24 04:08:43;;;;;;;12.57;5.40;;;5.60;54.50;;;;;;4993114;28;20029;-75
2021/04/24 04:11:09;;;;;;;10.20;4.80;;;5.60;54.70;;;;;;4993055;28;20490;-74
2021/04/24 04:13:34;;;;;;;8.48;4.43;;;5.60;54.60;;;;;;4993165;28;20391;-75
2021/04/24 04:16:00;;;;;;;8.05;5.10;;;5.60;54.60;;;;;;4993035;28;20035;-75
2021/04/24 04:18:26;;;;;;;10.52;5.03;;;5.60;54.60;;;;;;4993272;28;20394;-75
2021/04/24 04:20:54;;;;;;;10.60;5.60;;;5.60;55.30;;;;;;4993267;28;20073;-75
2021/04/24 04:23:21;;;;;;;13.68;6.07;;;5.50;54.60;;;;;;4993010;28;20058;-76
2021/04/24 04:25:47;;;;;;;8.95;4.55;;;5.50;54.80;;;;;;4993106;28;20045;-76
2021/04/24 04:28:13;;;;;;;11.65;4.47;;;5.40;54.80;;;;;;4993133;28;20455;-75
2021/04/24 04:30:41;;;;;;;13.48;5.65;;;5.40;54.80;;;;;;4993209;28;20023;-76
2021/04/24 04:33:08;;;;;;;9.05;5.05;;;5.40;55.50;;;;;;4993087;28;20054;-76
2021/04/24 04:35:35;;;;;;;10.23;5.05;;;5.40;54.80;;;;;;4993047;28;20022;-76
2021/04/24 04:38:02;;;;;;;11.30;6.15;;;5.40;54.90;;;;;;4993026;28;20376;-76
2021/04/24 04:40:28;;;;;;;11.93;5.63;;;5.40;54.80;;;;;;4993044;28;20029;-76
2021/04/24 04:42:54;;;;;;;13.90;6.05;;;5.40;54.70;;;;;;4992880;28;20479;-76
2021/04/24 04:45:21;;;;;;;12.38;5.32;;;5.40;54.70;;;;;;4976832;28;20037;-76
2021/04/24 04:47:47;;;;;;;12.35;5.57;;;5.40;54.70;;;;;;4996422;28;20033;-75
2021/04/24 04:50:16;;;;;;;9.40;5.57;;;5.40;54.90;;;;;;4996396;28;20463;-76
2021/04/24 04:52:42;;;;;;;10.68;5.55;;;5.40;54.90;;;;;;4996335;28;20033;-76
2021/04/24 04:55:09;;;;;;;9.15;4.80;;;5.40;55.00;;;;;;4996168;28;20479;-75
2021/04/24 04:57:35;;;;;;;15.15;5.78;;;5.40;55.10;;;;;;4978889;28;20117;-76
2021/04/24 05:00:00;;;;;;;14.73;6.55;;;5.40;55.10;;;;;;4996214;28;20102;-75
2021/04/24 05:02:26;;;;;;;11.75;5.70;;;5.50;55.00;;;;;;4996194;28;20034;-76
2021/04/24 05:04:52;;;;;;;12.95;5.13;;;5.60;54.90;;;;;;4996175;28;20471;-76
2021/04/24 05:07:17;;;;;;;7.30;4.53;;;5.70;54.80;;;;;;4996200;28;20105;-75
2021/04/24 05:09:43;;;;;;;10.50;5.45;;;5.70;54.50;;;;;;4995831;28;20030;-75
2021/04/24 05:12:09;;;;;;;8.30;4.85;;;5.80;54.30;;;;;;4995954;28;20072;-75
2021/04/24 05:14:36;;;;;;;11.98;5.97;;;5.90;54.20;;;;;;4978540;28;20530;-75
2021/04/24 05:17:03;;;;;;;8.20;5.00;;;6.00;53.90;;;;;;4978238;28;20432;-74
2021/04/24 05:19:29;;;;;;;8.60;4.68;;;6.00;53.50;;;;;;4995839;28;20025;-75
2021/04/24 05:21:54;;;;;;;16.35;6.53;;;6.10;53.30;;;;;;4995560;28;20031;-77
2021/04/24 05:24:20;;;;;;;13.13;5.65;;;6.20;53.20;;;;;;4995659;28;20561;-76
2021/04/24 05:26:46;;;;;;;11.02;5.93;;;6.20;53.00;;;;;;4995344;28;20058;-75
2021/04/24 05:29:11;;;;;;;9.93;5.55;;;6.20;52.80;;;;;;4995615;28;20391;-75
2021/04/24 05:31:37;;;;;;;9.65;4.93;;;6.30;52.80;;;;;;4978206;28;20395;-75
2021/04/24 05:34:03;;;;;;;8.40;5.38;;;6.40;52.70;;;;;;4995282;28;20386;-75
2021/04/24 05:36:29;;;;;;;10.00;5.35;;;6.50;52.60;;;;;;4995148;28;20026;-74
2021/04/24 05:38:55;;;;;;;12.95;5.28;;;6.50;52.50;;;;;;4994948;28;20031;-73
2021/04/24 05:41:22;;;;;;;11.50;6.20;;;6.60;52.30;;;;;;4995345;28;20030;-75
2021/04/24 05:43:58;;;;;;;10.30;5.97;;;6.80;52.20;;;;;;4995360;28;20022;-75
2021/04/24 05:46:24;;;;;;;13.77;6.70;;;6.90;51.90;;;;;;4995087;28;20070;-75
2021/04/24 05:48:51;;;;;;;11.95;6.85;;;7.00;51.50;;;;;;4977518;28;20049;-75
2021/04/24 05:51:18;;;;;;;15.07;7.35;;;7.10;51.30;;;;;;4994950;28;20023;-75
2021/04/24 05:53:45;;;;;;;13.35;6.93;;;7.20;50.90;;;;;;4994755;28;20023;-77
2021/04/24 05:56:11;;;;;;;13.73;6.20;;;7.30;50.90;;;;;;4993920;28;20134;-76
2021/04/24 05:58:37;;;;;;;10.27;5.50;;;7.40;50.60;;;;;;4994628;28;20109;-76
2021/04/24 06:01:04;;;;;;;7.95;5.15;;;7.50;50.50;;;;;;4994849;28;20014;-75
2021/04/24 06:03:29;;;;;;;10.55;5.28;;;7.70;50.30;;;;;;4994828;28;20487;-76
2021/04/24 06:05:55;;;;;;;11.07;6.15;;;7.80;50.00;;;;;;4994790;28;20026;-76
2021/04/24 06:08:20;;;;;;;7.97;5.05;;;7.90;49.60;;;;;;4994970;28;20026;-75
2021/04/24 06:10:46;;;;;;;9.63;5.63;;;8.00;49.30;;;;;;4994748;28;20022;-75
2021/04/24 06:13:12;;;;;;;9.40;5.50;;;8.20;49.10;;;;;;4994326;28;20034;-77
2021/04/24 06:15:37;;;;;;;9.55;5.78;;;8.30;48.80;;;;;;4994646;28;20076;-76
2021/04/24 06:18:04;;;;;;;14.27;5.85;;;8.40;48.50;;;;;;4994701;28;20476;-76
2021/04/24 06:20:29;;;;;;;11.60;6.10;;;8.50;48.20;;;;;;4994486;28;20037;-76
2021/04/24 06:22:55;;;;;;;13.98;7.95;;;8.60;47.80;;;;;;4976794;28;20038;-77
2021/04/24 06:25:21;;;;;;;18.67;8.10;;;8.70;47.60;;;;;;4994281;28;20058;-77
2021/04/24 06:27:48;;;;;;;11.98;6.90;;;8.80;47.30;;;;;;4994246;28;20022;-77
2021/04/24 06:30:16;;;;;;;15.27;6.75;;;8.90;47.20;;;;;;4994341;28;20029;-75
2021/04/24 06:32:41;;;;;;;14.45;7.97;;;9.00;47.00;;;;;;4994406;28;20503;-77
2021/04/24 06:35:09;;;;;;;13.75;6.10;;;9.10;46.80;;;;;;4994013;28;20030;-77
2021/04/24 06:37:37;;;;;;;16.08;7.20;;;9.20;46.60;;;;;;4994110;28;20121;-78
2021/04/24 06:40:07;;;;;;;18.30;7.05;;;9.30;46.40;;;;;;4993991;28;20101;-77
2021/04/24 06:42:33;;;;;;;15.18;6.70;;;9.40;46.20;;;;;;4993759;28;20549;-76
2021/04/24 06:44:59;;;;;;;14.50;6.32;;;9.60;46.00;;;;;;4994122;28;20027;-76
2021/04/24 06:47:25;;;;;;;9.75;5.07;;;9.80;45.90;;;;;;4994016;28;20057;-77
2021/04/24 06:49:51;;;;;;;11.63;6.22;;;10.00;45.80;;;;;;4993933;28;20525;-78
2021/04/24 06:52:16;;;;;;;10.27;5.55;;;10.10;45.40;;;;;;4995277;28;20027;-77
2021/04/24 06:54:42;;;;;;;12.35;6.45;;;10.20;44.80;;;;;;5005301;28;20069;-80
2021/04/24 06:57:08;;;;;;;12.30;6.13;;;10.40;44.50;;;;;;4993843;28;20042;-77
2021/04/24 06:59:33;;;;;;;17.70;6.32;;;10.50;44.10;;;;;;4993874;28;20065;-78
2021/04/24 07:01:59;;;;;;;12.05;7.13;;;10.60;44.30;;;;;;4993216;28;20520;-77
2021/04/24 07:04:25;;;;;;;14.38;6.70;;;10.70;42.90;;;;;;4975853;28;20487;-76
2021/04/24 07:06:51;;;;;;;14.25;6.45;;;10.70;42.10;;;;;;4993417;28;20061;-80
2021/04/24 07:09:16;;;;;;;12.77;6.65;;;10.80;41.50;;;;;;4993543;28;20093;-75
2021/04/24 07:11:42;;;;;;;15.65;7.65;;;10.90;41.30;;;;;;4993768;28;20026;-78
2021/04/24 07:14:08;;;;;;;15.27;7.85;;;10.90;40.40;;;;;;4993428;28;20027;-78
2021/04/24 07:16:33;;;;;;;15.00;7.10;;;10.60;39.70;;;;;;4993196;28;20041;-79
2021/04/24 07:18:59;;;;;;;11.88;6.18;;;10.30;39.70;;;;;;4993382;28;20498;-79
2021/04/24 07:21:24;;;;;;;13.77;5.10;;;10.50;40.00;;;;;;4975964;28;20463;-75
2021/04/24 07:23:51;;;;;;;13.68;6.20;;;10.80;46.20;;;;;;4993834;28;20041;-74
2021/04/24 07:26:17;;;;;;;11.73;5.35;;;11.30;50.90;;;;;;4993917;28;20019;-77
2021/04/24 07:28:43;;;;;;;10.98;5.20;;;11.70;50.30;;;;;;4993835;28;20035;-75
2021/04/24 07:31:09;;;;;;;13.70;5.88;;;12.20;49.40;;;;;;4994683;28;20144;-75
2021/04/24 07:33:35;;;;;;;14.80;6.70;;;12.40;46.80;;;;;;4993229;28;20034;-75
2021/04/24 07:36:01;;;;;;;14.23;6.47;;;12.80;45.20;;;;;;4996939;28;20550;-75
2021/04/24 07:38:27;;;;;;;15.18;6.55;;;13.00;42.10;;;;;;4994394;28;20022;-77
2021/04/24 07:40:52;;;;;;;11.52;5.90;;;13.30;42.20;;;;;;4994744;28;20030;-78
2021/04/24 07:43:18;;;;;;;16.25;5.90;;;13.50;41.50;;;;;;4995052;28;20096;-77
2021/04/24 07:45:44;;;;;;;13.60;6.28;;;13.80;41.20;;;;;;4994446;28;20041;-76
2021/04/24 07:48:10;;;;;;;9.27;5.40;;;13.80;38.30;;;;;;4993739;28;20030;-76
2021/04/24 07:50:37;;;;;;;17.08;6.40;;;14.00;38.80;;;;;;4975560;28;20026;-74
2021/04/24 07:53:02;;;;;;;13.02;6.05;;;14.20;38.40;;;;;;4993334;28;20482;-76
2021/04/24 07:55:28;;;;;;;12.85;6.07;;;14.30;37.50;;;;;;4993557;28;20125;-75
2021/04/24 07:57:54;;;;;;;13.45;5.30;;;14.40;36.80;;;;;;4993808;28;20133;-79
2021/04/24 08:00:21;;;;;;;13.38;6.45;;;14.50;36.70;;;;;;4993777;28;20062;-80
2021/04/24 08:02:47;;;;;;;8.98;4.93;;;14.70;36.70;;;;;;4994386;28;20052;-75
2021/04/24 08:05:16;;;;;;;20.52;7.45;;;14.80;36.40;;;;;;4993594;28;20019;-81
2021/04/24 08:07:42;;;;;;;14.23;6.80;;;14.80;35.30;;;;;;4978349;28;20034;-78
2021/04/24 08:10:08;;;;;;;14.88;7.68;;;14.90;35.70;;;;;;4996067;28;20093;-78
2021/04/24 08:12:34;;;;;;;13.32;6.57;;;15.00;35.80;;;;;;4976536;28;20177;-75
2021/04/24 08:14:59;;;;;;;17.75;6.38;;;15.00;35.20;;;;;;4993372;28;20495;-75
2021/04/24 08:17:25;;;;;;;11.02;5.85;;;15.10;35.00;;;;;;4994969;28;20041;-79
2021/04/24 08:19:50;;;;;;;12.75;6.43;;;15.00;34.30;;;;;;4997070;28;20448;-76
2021/04/24 08:22:16;;;;;;;14.43;5.55;;;15.00;34.10;;;;;;4996624;28;20039;-75
2021/04/24 08:24:41;;;;;;;11.90;5.60;;;15.10;35.10;;;;;;4978796;28;20025;-75
2021/04/24 08:27:07;;;;;;;18.42;6.60;;;15.20;34.80;;;;;;4996266;28;20031;-75
2021/04/24 08:29:33;;;;;;;14.20;6.55;;;15.30;35.10;;;;;;4996320;28;20023;-75
2021/04/24 08:31:59;;;;;;;14.80;6.63;;;15.30;34.80;;;;;;4996280;28;20023;-75
2021/04/24 08:34:26;;;;;;;8.77;5.13;;;15.30;34.40;;;;;;4996264;28;20027;-76
2021/04/24 08:36:53;;;;;;;11.93;5.35;;;15.40;34.80;;;;;;4996282;28;20033;-74
2021/04/24 08:39:19;;;;;;;11.02;6.30;;;15.60;35.40;;;;;;4996068;28;20022;-74
2021/04/24 08:41:45;;;;;;;10.18;5.40;;;15.70;34.50;;;;;;4996116;28;20053;-75
2021/04/24 08:44:15;;;;;;;15.52;6.15;;;15.80;34.10;;;;;;4995971;28;20487;-78
2021/04/24 08:46:41;;;;;;;11.13;6.57;;;15.80;33.80;;;;;;4995802;28;20154;-76
2021/04/24 08:49:07;;;;;;;12.15;4.95;;;15.80;33.20;;;;;;4995502;28;20493;-78
2021/04/24 08:51:32;;;;;;;14.05;6.40;;;16.00;34.10;;;;;;4995633;28;20036;-76
2021/04/24 08:53:59;;;;;;;15.32;6.45;;;16.10;33.70;;;;;;4995615;28;20108;-77
2021/04/24 08:56:26;;;;;;;12.18;6.40;;;16.20;33.50;;;;;;4995679;28;20129;-77
2021/04/24 08:58:53;;;;;;;10.38;5.93;;;16.30;33.30;;;;;;4995386;28;20034;-77
2021/04/24 09:01:20;;;;;;;16.00;6.70;;;16.30;32.70;;;;;;4995780;28;20383;-77
2021/04/24 09:03:46;;;;;;;11.63;5.70;;;16.40;32.60;;;;;;4995501;28;20041;-78
2021/04/24 09:06:11;;;;;;;10.73;5.95;;;16.40;32.50;;;;;;4995747;28;20026;-78
2021/04/24 09:08:37;;;;;;;11.23;6.25;;;16.50;32.80;;;;;;4995531;28;20026;-78
2021/04/24 09:11:05;;;;;;;12.93;7.18;;;16.40;32.30;;;;;;4995684;28;20018;-77
2021/04/24 09:13:32;;;;;;;10.50;4.80;;;16.40;32.60;;;;;;4995824;28;20085;-76
2021/04/24 09:15:58;;;;;;;11.40;6.22;;;16.50;32.70;;;;;;4995757;28;20026;-76
2021/04/24 09:18:28;;;;;;;18.70;7.07;;;16.50;32.10;;;;;;4978096;28;20074;-76
2021/04/24 09:20:58;;;;;;;17.48;7.10;;;16.40;31.60;;;;;;4977994;28;20475;-77
2021/04/24 09:23:36;;;;;;;8.88;4.72;;;16.30;31.60;;;;;;4995983;28;20368;-75
2021/04/24 09:26:09;;;;;;;12.85;6.20;;;16.50;32.20;;;;;;4977723;28;20434;-77
2021/04/24 09:28:37;;;;;;;10.38;5.93;;;16.50;31.90;;;;;;4994999;28;20054;-77
2021/04/24 09:31:15;;;;;;;10.68;5.20;;;16.70;32.20;;;;;;4994738;28;20030;-76
2021/04/24 09:33:43;;;;;;;10.60;5.75;;;16.90;32.40;;;;;;4994767;28;20034;-76
2021/04/24 09:36:10;;;;;;;10.65;6.45;;;17.10;32.30;;;;;;4994539;28;20043;-76
2021/04/24 09:38:38;;;;;;;16.17;6.57;;;17.40;32.20;;;;;;4995004;28;20105;-75
2021/04/24 09:41:18;;;;;;;11.75;6.03;;;17.50;31.70;;;;;;4995074;28;20503;-76
2021/04/24 09:44:00;;;;;;;11.13;5.25;;;17.60;31.30;;;;;;4994539;28;20495;-76
2021/04/24 09:46:44;;;;;;;16.45;6.72;;;17.80;32.00;;;;;;4994960;28;20021;-75
2021/04/24 09:49:13;;;;;;;12.07;6.65;;;17.80;30.50;;;;;;4994777;28;20034;-75
2021/04/24 09:51:57;;;;;;;21.73;5.25;;;17.80;30.10;;;;;;4977271;28;20383;-74
2021/04/24 09:54:37;;;;;;;12.00;6.53;;;17.60;30.00;;;;;;4994559;28;20026;-75
2021/04/24 09:57:08;;;;;;;13.23;6.38;;;17.80;29.60;;;;;;4994674;28;20205;-76
2021/04/24 10:00:13;;;;;;;13.63;6.20;;;17.80;28.60;;;;;;4977633;28;20031;-75
2021/04/24 10:02:42;;;;;;;16.42;5.95;;;18.00;28.70;;;;;;4994957;28;20039;-77
2021/04/24 10:05:18;;;;;;;11.25;6.20;;;18.10;28.20;;;;;;4994900;28;20080;-79
2021/04/24 10:07:44;;;;;;;;;;;18.20;27.80;;;;;;4994964;28;20420;-75
2021/04/24 10:10:13;;;;;;;16.05;7.18;;;18.50;27.60;;;;;;4994391;28;19906;-76
2021/04/24 10:12:39;;;;;;;15.85;7.07;;;18.70;27.20;;;;;;4994683;28;20022;-78
2021/04/24 10:15:06;;;;;;;12.93;7.03;;;18.70;26.90;;;;;;4994495;28;20101;-79
2021/04/24 10:17:31;;;;;;;9.25;6.13;;;18.50;26.40;;;;;;4976485;28;20030;-74
2021/04/24 10:19:59;;;;;;;10.02;4.85;;;18.30;26.30;;;;;;4994693;28;20582;-77
2021/04/24 10:22:25;;;;;;;11.63;6.15;;;18.60;26.80;;;;;;4994399;28;20484;-82
2021/04/24 10:24:52;;;;;;;14.00;6.10;;;18.80;26.50;;;;;;4976903;28;20022;-75
2021/04/24 10:27:20;;;;;;;11.25;6.85;;;19.10;26.50;;;;;;4994167;28;20034;-75
2021/04/24 10:29:47;;;;;;;9.27;5.40;;;19.20;25.70;;;;;;4993700;28;20031;-76
2021/04/24 10:32:13;;;;;;;17.35;6.53;;;19.40;25.90;;;;;;4993918;28;20052;-77
2021/04/24 10:34:40;;;;;;;12.02;6.13;;;19.30;25.50;;;;;;4993701;28;20027;-77
2021/04/24 10:37:07;;;;;;;18.48;8.15;;;19.30;25.20;;;;;;4993587;28;20025;-77
2021/04/24 10:39:35;;;;;;;10.85;6.53;;;19.20;25.40;;;;;;4993628;28;20034;-77
2021/04/24 10:42:22;;;;;;;9.85;6.22;;;19.20;24.50;;;;;;4993480;28;20480;-77
2021/04/24 10:44:53;;;;;;;13.13;7.00;;;19.20;24.00;;;;;;4976031;28;20391;-76
2021/04/24 10:47:41;;;;;;;13.90;6.60;;;19.10;23.90;;;;;;4996440;28;20022;-76
2021/04/24 10:50:10;;;;;;;11.98;6.63;;;19.00;24.20;;;;;;4974439;28;20360;-76
2021/04/24 10:52:38;;;;;;;10.85;6.35;;;19.20;24.40;;;;;;4974792;28;20026;-76
2021/04/24 10:55:18;;;;;;;12.85;5.65;;;19.40;23.60;;;;;;4974213;28;20047;-76
2021/04/24 10:57:49;;;;;;;11.25;6.32;;;19.70;23.80;;;;;;4974829;28;20034;-77
2021/04/24 11:00:23;;;;;;;10.68;5.97;;;20.00;23.50;;;;;;4974283;28;20034;-78
2021/04/24 11:02:54;;;;;;;16.25;6.38;;;20.40;23.40;;;;;;4956829;28;20533;-76
2021/04/24 11:05:27;;;;;;;11.88;5.30;;;20.80;23.10;;;;;;4974890;28;20114;-86
2021/04/24 11:08:08;;;;;;;12.27;6.13;;;20.90;22.70;;;;;;4974426;28;20022;-76
2021/04/24 11:10:42;;;;;;;12.30;5.45;;;21.10;21.70;;;;;;4974167;28;20444;-83
2021/04/24 11:13:10;;;;;;;14.85;6.88;;;21.30;21.90;;;;;;4974345;28;20500;-78
2021/04/24 11:15:36;;;;;;;10.50;5.40;;;21.50;21.40;;;;;;4974205;28;20110;-77
2021/04/24 11:18:04;;;;;;;14.00;6.10;;;21.60;20.80;;;;;;4974177;28;20067;-78
2021/04/24 11:21:04;;;;;;;11.63;5.47;;;21.60;20.20;;;;;;4974139;28;20026;-76
2021/04/24 11:23:29;;;;;;;15.95;6.03;;;21.60;20.00;;;;;;4974029;28;20031;-75
2021/04/24 11:25:56;;;;;;;10.55;6.60;;;21.80;19.90;;;;;;4973830;28;20030;-74
2021/04/24 11:28:22;;;;;;;9.77;5.57;;;21.70;19.50;;;;;;4973914;28;20484;-77
2021/04/24 11:30:59;;;;;;;9.10;5.93;;;22.00;19.40;;;;;;4973825;28;20019;-75
2021/04/24 11:33:41;;;;;;;13.65;5.85;;;22.20;19.00;;;;;;4974030;28;20046;-82
2021/04/24 11:36:25;;;;;;;13.02;6.38;;;22.40;18.70;;;;;;4974492;28;20027;-86
2021/04/24 11:38:57;;;;;;;10.07;6.85;;;22.30;18.40;;;;;;4974154;28;20104;-78
2021/04/24 11:41:41;;;;;;;12.68;6.93;;;22.30;18.30;;;;;;4973892;28;20031;-83
2021/04/24 11:44:21;;;;;;;10.95;5.13;;;22.50;18.00;;;;;;4956620;28;20524;-81
2021/04/24 11:46:49;;;;;;;8.98;5.32;;;22.50;18.00;;;;;;4973906;28;20073;-79
2021/04/24 11:49:17;;;;;;;14.98;6.35;;;22.70;17.90;;;;;;5481195;23;20046;-76
2021/04/24 11:51:53;;;;;;;10.27;5.70;;;23.10;18.30;;;;;;4976994;23;20086;-76
2021/04/24 11:59:47;;;;;;;;;;;23.70;17.60;;;;;;5161157;23;20542;-79
2021/04/24 12:02:19;;;;;;;9.15;6.10;;;22.80;17.20;;;;;;5133211;23;19958;-82
2021/04/24 12:04:54;;;;;;;11.32;5.93;;;22.40;17.10;;;;;;4960754;28;20051;-82
2021/04/24 12:07:21;;;;;;;9.60;5.28;;;22.60;17.10;;;;;;4960412;28;20027;-80
2021/04/24 12:09:46;;;;;;;10.65;7.05;;;22.80;17.50;;;;;;4959937;28;20026;-79
2021/04/24 12:12:13;;;;;;;13.55;7.03;;;22.70;17.20;;;;;;4960188;28;20085;-80
2021/04/24 12:14:39;;;;;;;11.98;6.05;;;22.80;17.10;;;;;;4960078;28;20029;-78
2021/04/24 12:17:14;;;;;;;11.18;6.45;;;23.00;17.10;;;;;;4959707;28;20466;-79
2021/04/24 12:19:41;;;;;;;10.48;6.63;;;22.90;17.10;;;;;;4960643;28;20471;-80
2021/04/24 12:22:15;;;;;;;10.52;6.40;;;22.90;17.30;;;;;;4960226;28;20051;-80
2021/04/24 12:24:59;;;;;;;11.32;6.22;;;23.20;17.20;;;;;;4960113;28;20027;-77
2021/04/24 12:27:27;;;;;;;15.70;6.18;;;23.20;17.20;;;;;;4960083;28;20027;-77
2021/04/24 12:29:54;;;;;;;11.88;5.80;;;23.40;17.20;;;;;;4960322;28;20077;-76
2021/04/24 12:32:24;;;;;;;13.65;5.90;;;23.40;17.00;;;;;;4960051;28;20054;-81
2021/04/24 12:34:51;;;;;;;15.15;6.65;;;23.60;17.10;;;;;;4959632;28;20038;-77
2021/04/24 12:37:21;;;;;;;9.38;5.55;;;23.90;16.60;;;;;;4960098;28;20058;-78
2021/04/24 12:40:08;;;;;;;10.30;5.60;;;23.80;16.30;;;;;;4959722;28;20121;-81
2021/04/24 12:42:33;;;;;;;7.35;5.82;;;23.90;16.30;;;;;;4959518;28;20403;-82
2021/04/24 12:45:00;;;;;;;10.68;5.57;;;23.70;16.10;;;;;;4959568;28;20023;-80
2021/04/24 12:47:27;;;;;;;13.95;5.30;;;23.80;15.80;;;;;;4959539;28;20069;-81
2021/04/24 12:49:55;;;;;;;8.10;5.28;;;23.50;15.70;;;;;;4959531;28;20018;-81
2021/04/24 12:52:21;;;;;;;10.15;5.60;;;23.70;15.80;;;;;;4959656;28;20033;-80